Time;durP1;ratioP1;P1;durP2;ratioP2;P2;SDS_P1;SDS_P2;PMS_P1;PMS_P2;Temp;Humidity;BMP_temperature;BMP_pressure;BME280_temperature;BME280_humidity;BME280_pressure;Samples;Min_cycle;Max_cycle;Signal;HPM_P1;HPM_P2
2024/01/07 00:02:01;;;;;;;15.57;10.70;;;5.90;26.50;;;;;;5022112;28;20494;-64
2024/01/07 00:04:29;;;;;;;13.03;9.47;;;5.90;26.60;;;;;;5023567;28;21310;-64
2024/01/07 00:06:56;;;;;;;15.23;9.77;;;5.90;26.60;;;;;;5028141;28;20469;-64
2024/01/07 00:09:22;;;;;;;17.80;10.47;;;5.90;26.50;;;;;;5023132;28;20464;-64
2024/01/07 00:11:50;;;;;;;16.80;10.80;;;5.90;26.60;;;;;;5018808;28;20463;-64
2024/01/07 00:14:17;;;;;;;15.43;10.60;;;5.90;26.40;;;;;;5033254;28;20486;-64
2024/01/07 00:16:44;;;;;;;14.27;9.43;;;6.00;26.30;;;;;;5029679;28;20931;-64
2024/01/07 00:19:10;;;;;;;14.93;10.00;;;6.00;26.30;;;;;;5024759;28;20459;-64
2024/01/07 00:21:38;;;;;;;14.80;9.70;;;6.00;26.20;;;;;;5025000;28;20800;-65
2024/01/07 00:24:05;;;;;;;17.70;10.10;;;6.00;25.90;;;;;;5027656;28;20489;-64
2024/01/07 00:26:32;;;;;;;15.67;8.90;;;6.00;25.70;;;;;;5027909;28;20454;-64
2024/01/07 00:28:59;;;;;;;14.43;9.27;;;6.00;25.30;;;;;;5029309;28;20466;-64
2024/01/07 00:31:25;;;;;;;20.30;10.20;;;5.90;25.60;;;;;;5024654;28;21033;-64
2024/01/07 00:33:52;;;;;;;14.50;8.90;;;5.90;25.70;;;;;;5026681;28;20477;-64
2024/01/07 00:36:19;;;;;;;13.27;9.30;;;5.90;25.80;;;;;;5030586;28;20497;-64
2024/01/07 00:38:47;;;;;;;14.60;10.00;;;5.90;25.70;;;;;;5028301;28;20466;-64
2024/01/07 00:41:14;;;;;;;14.17;9.67;;;5.90;25.80;;;;;;5032352;28;20462;-64
2024/01/07 00:43:41;;;;;;;13.40;8.17;;;5.90;25.80;;;;;;5031783;28;20482;-64
2024/01/07 00:46:08;;;;;;;12.83;7.60;;;5.90;25.70;;;;;;5028555;28;20520;-64
2024/01/07 00:48:34;;;;;;;13.10;8.40;;;5.80;25.70;;;;;;5033145;28;20482;-64
2024/01/07 00:51:01;;;;;;;12.17;7.03;;;5.80;25.60;;;;;;5033887;28;20460;-64
2024/01/07 00:53:28;;;;;;;13.93;8.10;;;5.90;25.30;;;;;;5024301;28;20490;-64
2024/01/07 00:55:56;;;;;;;13.33;8.83;;;5.90;25.20;;;;;;5028228;28;20474;-64
2024/01/07 00:58:22;;;;;;;13.93;7.33;;;5.80;25.10;;;;;;5031101;28;20450;-64
2024/01/07 01:00:49;;;;;;;10.67;6.93;;;5.80;24.80;;;;;;5028019;28;20474;-64
2024/01/07 01:03:16;;;;;;;13.00;8.70;;;5.80;24.90;;;;;;5034938;28;20477;-64
2024/01/07 01:05:43;;;;;;;12.37;7.80;;;5.80;25.00;;;;;;5021669;28;20464;-64
2024/01/07 01:08:10;;;;;;;11.47;7.70;;;5.80;25.10;;;;;;5031264;28;20455;-64
2024/01/07 01:10:36;;;;;;;12.63;8.47;;;5.70;25.40;;;;;;5033706;28;20466;-64
2024/01/07 01:13:04;;;;;;;13.43;8.07;;;5.80;25.30;;;;;;5027140;28;20478;-64
2024/01/07 01:15:31;;;;;;;13.07;7.33;;;5.70;25.50;;;;;;5031970;28;20463;-64
2024/01/07 01:17:58;;;;;;;13.20;8.03;;;5.80;25.10;;;;;;5026263;28;20999;-64
2024/01/07 01:20:25;;;;;;;10.50;7.00;;;5.70;24.80;;;;;;5026225;28;20459;-64
2024/01/07 01:22:51;;;;;;;12.10;6.90;;;5.70;25.00;;;;;;5030032;28;20488;-64
2024/01/07 01:25:18;;;;;;;11.53;7.43;;;5.70;25.00;;;;;;5030298;28;20482;-64
2024/01/07 01:27:45;;;;;;;11.57;7.00;;;5.70;25.00;;;;;;5025559;28;20450;-64
2024/01/07 01:30:14;;;;;;;10.23;7.40;;;5.70;25.10;;;;;;5025275;28;20478;-65
2024/01/07 01:32:40;;;;;;;12.10;7.17;;;5.60;25.20;;;;;;5028528;28;20947;-64
2024/01/07 01:35:08;;;;;;;11.30;8.07;;;5.60;25.30;;;;;;5023879;28;20951;-65
2024/01/07 01:37:35;;;;;;;15.20;8.40;;;5.60;25.40;;;;;;5029109;28;20497;-65
2024/01/07 01:40:01;;;;;;;13.73;8.87;;;5.60;25.50;;;;;;5026205;28;20454;-64
2024/01/07 01:42:28;;;;;;;13.73;8.77;;;5.60;25.70;;;;;;5028849;28;20468;-64
2024/01/07 01:44:59;;;;;;;16.23;10.20;;;5.60;25.60;;;;;;5030304;28;20455;-64
2024/01/07 01:47:27;;;;;;;16.40;10.50;;;5.60;25.70;;;;;;5024681;28;21162;-64
2024/01/07 01:49:54;;;;;;;16.23;9.80;;;5.60;25.90;;;;;;5025514;28;20486;-64
2024/01/07 01:52:21;;;;;;;14.70;9.20;;;5.60;25.90;;;;;;5031152;28;20466;-64
2024/01/07 01:54:48;;;;;;;16.97;10.30;;;5.60;25.90;;;;;;5023562;28;20486;-64
2024/01/07 01:57:20;;;;;;;17.00;10.50;;;5.60;26.00;;;;;;5031501;28;20478;-64
2024/01/07 01:59:47;;;;;;;17.83;11.10;;;5.60;26.10;;;;;;5029572;28;20555;-64
2024/01/07 02:02:14;;;;;;;16.10;9.60;;;5.60;26.70;;;;;;5019527;28;20538;-64
2024/01/07 02:04:43;;;;;;;21.40;11.27;;;5.60;26.20;;;;;;5022936;28;20476;-64
2024/01/07 02:07:10;;;;;;;14.87;10.27;;;5.60;26.10;;;;;;5026679;28;20841;-64
2024/01/07 02:09:37;;;;;;;17.70;10.83;;;5.60;26.10;;;;;;5027320;28;20840;-64
2024/01/07 02:12:05;;;;;;;15.57;10.33;;;5.70;26.10;;;;;;5028499;28;20455;-64
2024/01/07 02:14:31;;;;;;;18.40;12.13;;;5.60;26.20;;;;;;5027496;28;20494;-64
2024/01/07 02:16:58;;;;;;;16.93;10.50;;;5.60;26.10;;;;;;5020638;28;20482;-64
2024/01/07 02:19:25;;;;;;;16.63;11.30;;;5.60;26.30;;;;;;5023119;28;20459;-64
2024/01/07 02:21:54;;;;;;;21.13;11.27;;;5.60;26.30;;;;;;5020542;28;20467;-64
2024/01/07 02:24:22;;;;;;;20.00;11.00;;;5.60;26.40;;;;;;5024227;28;20548;-64
2024/01/07 02:26:49;;;;;;;16.03;11.07;;;5.70;26.30;;;;;;5025421;28;20459;-64
2024/01/07 02:29:16;;;;;;;17.70;10.53;;;5.70;26.20;;;;;;5025219;28;20868;-64
2024/01/07 02:31:42;;;;;;;16.47;10.53;;;5.70;26.20;;;;;;5023843;28;20463;-64
2024/01/07 02:34:10;;;;;;;15.90;9.87;;;5.60;26.40;;;;;;5026076;28;20494;-64
2024/01/07 02:36:37;;;;;;;15.13;10.87;;;5.60;26.50;;;;;;5024587;28;20502;-64
2024/01/07 02:39:04;;;;;;;17.07;10.50;;;5.60;26.30;;;;;;5018984;28;20471;-64
2024/01/07 02:41:32;;;;;;;17.83;9.80;;;5.60;26.30;;;;;;5028514;28;20494;-64
2024/01/07 02:43:59;;;;;;;17.30;10.30;;;5.60;26.30;;;;;;5025626;28;20479;-64
2024/01/07 02:46:25;;;;;;;17.53;10.17;;;5.70;26.20;;;;;;5019995;28;20460;-64
2024/01/07 02:48:52;;;;;;;19.53;9.73;;;5.60;26.30;;;;;;5019959;28;20463;-64
2024/01/07 02:51:19;;;;;;;16.17;10.07;;;5.60;26.50;;;;;;5024641;28;20469;-64
2024/01/07 02:53:45;;;;;;;17.03;10.40;;;5.60;26.40;;;;;;5022958;28;20478;-64
2024/01/07 02:56:12;;;;;;;19.00;10.93;;;5.70;26.40;;;;;;5024387;28;20465;-64
2024/01/07 02:58:40;;;;;;;19.63;11.20;;;5.70;26.10;;;;;;5025336;28;20475;-64
2024/01/07 03:01:10;;;;;;;14.27;10.00;;;5.70;26.30;;;;;;5026048;28;20480;-64
2024/01/07 03:03:36;;;;;;;15.00;10.60;;;5.70;26.40;;;;;;5023899;28;20509;-64
2024/01/07 03:06:03;;;;;;;15.47;10.03;;;5.70;26.30;;;;;;5029145;28;20458;-64
2024/01/07 03:08:30;;;;;;;15.97;10.10;;;5.70;26.40;;;;;;5021935;28;20464;-64
2024/01/07 03:10:57;;;;;;;16.33;10.50;;;5.70;26.40;;;;;;5021098;28;20486;-64
2024/01/07 03:13:23;;;;;;;15.63;10.63;;;5.70;26.00;;;;;;5024094;28;20490;-64
2024/01/07 03:15:51;;;;;;;17.40;10.10;;;5.70;25.70;;;;;;5032081;28;20460;-64
2024/01/07 03:18:18;;;;;;;22.67;11.50;;;5.70;25.80;;;;;;5023606;28;20491;-64
2024/01/07 03:20:45;;;;;;;16.73;11.37;;;5.70;25.60;;;;;;5025309;28;20822;-65
2024/01/07 03:23:11;;;;;;;17.63;11.93;;;5.70;25.90;;;;;;5023666;28;20521;-64
2024/01/07 03:25:38;;;;;;;16.57;10.83;;;5.70;25.80;;;;;;5022508;28;20463;-65
2024/01/07 03:28:05;;;;;;;17.27;10.70;;;5.70;25.40;;;;;;5023370;28;20459;-65
2024/01/07 03:30:32;;;;;;;14.60;9.20;;;5.70;25.50;;;;;;5023404;28;20463;-64
2024/01/07 03:33:00;;;;;;;16.30;10.40;;;5.70;25.40;;;;;;5019183;28;20490;-64
2024/01/07 03:35:27;;;;;;;17.50;10.40;;;5.60;25.40;;;;;;5024375;28;20839;-64
2024/01/07 03:37:53;;;;;;;16.43;10.90;;;5.60;25.50;;;;;;5020848;28;20482;-64
2024/01/07 03:40:20;;;;;;;15.67;9.87;;;5.60;25.70;;;;;;5024771;28;20462;-64
2024/01/07 03:42:47;;;;;;;15.80;10.37;;;5.60;25.80;;;;;;5023470;28;20548;-64
2024/01/07 03:45:13;;;;;;;17.73;10.30;;;5.60;25.60;;;;;;5021123;28;20464;-64
2024/01/07 03:47:40;;;;;;;15.60;10.80;;;5.60;25.50;;;;;;5022055;28;20470;-64
2024/01/07 03:50:09;;;;;;;14.10;9.77;;;5.60;25.90;;;;;;5023763;28;20459;-64
2024/01/07 03:52:35;;;;;;;16.27;10.83;;;5.60;25.40;;;;;;5015187;28;20451;-64
2024/01/07 03:55:02;;;;;;;13.67;9.10;;;5.50;25.80;;;;;;5020487;28;20464;-64
2024/01/07 03:57:29;;;;;;;17.30;10.87;;;5.50;26.00;;;;;;5025788;28;20487;-64
2024/01/07 03:59:56;;;;;;;15.90;9.97;;;5.40;26.10;;;;;;5016379;28;20964;-65
2024/01/07 04:02:22;;;;;;;16.25;11.35;;;5.50;26.10;;;;;;5026358;28;20453;-64
2024/01/07 04:04:49;;;;;;;15.23;11.30;;;5.50;26.40;;;;;;5020855;28;20220;-64
2024/01/07 04:07:17;;;;;;;14.63;10.60;;;5.60;25.90;;;;;;5025914;28;20459;-65
2024/01/07 04:09:44;;;;;;;15.40;10.57;;;5.60;25.70;;;;;;5029466;28;20470;-65
2024/01/07 04:12:10;;;;;;;16.70;11.47;;;5.50;25.80;;;;;;5024028;28;20991;-64
2024/01/07 04:14:37;;;;;;;17.47;11.20;;;5.50;25.90;;;;;;5023416;28;20505;-64
2024/01/07 04:17:05;;;;;;;17.07;10.60;;;5.50;25.90;;;;;;5025703;28;20495;-64
2024/01/07 04:19:31;;;;;;;15.90;11.17;;;5.50;25.80;;;;;;5027209;28;20553;-64
2024/01/07 04:21:58;;;;;;;18.80;11.70;;;5.50;25.90;;;;;;5021662;28;20466;-64
2024/01/07 04:24:26;;;;;;;18.27;11.27;;;5.40;26.10;;;;;;5022069;28;20501;-64
2024/01/07 04:26:53;;;;;;;15.90;12.10;;;5.50;25.90;;;;;;5027399;28;20462;-64
2024/01/07 04:29:20;;;;;;;17.40;11.93;;;5.40;26.00;;;;;;5024143;28;20835;-64
2024/01/07 04:31:47;;;;;;;17.13;10.97;;;5.40;25.90;;;;;;5024481;28;21009;-64
2024/01/07 04:34:14;;;;;;;17.10;12.20;;;5.40;26.00;;;;;;5026633;28;20471;-65
2024/01/07 04:36:40;;;;;;;15.67;10.77;;;5.40;26.10;;;;;;5023745;28;20455;-64
2024/01/07 04:39:07;;;;;;;16.37;10.80;;;5.40;26.10;;;;;;5027084;28;20489;-64
2024/01/07 04:41:35;;;;;;;14.90;10.30;;;5.40;25.80;;;;;;5025891;28;20481;-64
2024/01/07 04:44:03;;;;;;;17.63;11.47;;;5.40;25.90;;;;;;5026741;28;20486;-64
2024/01/07 04:46:29;;;;;;;16.67;11.37;;;5.40;25.70;;;;;;5024007;28;20459;-64
2024/01/07 04:48:56;;;;;;;15.80;11.63;;;5.40;25.60;;;;;;5054079;22;20494;-65
2024/01/07 04:51:23;;;;;;;16.20;11.30;;;5.40;25.40;;;;;;5047316;28;20460;-65
2024/01/07 04:53:49;;;;;;;18.50;11.40;;;5.40;25.30;;;;;;5048350;28;20974;-66
2024/01/07 04:56:16;;;;;;;18.63;11.83;;;5.40;25.50;;;;;;5040947;28;20719;-65
2024/01/07 04:58:44;;;;;;;20.13;11.87;;;5.30;25.80;;;;;;5042571;28;20481;-66
2024/01/07 05:01:11;;;;;;;15.97;10.50;;;5.30;25.80;;;;;;5041745;28;20480;-65
2024/01/07 05:03:37;;;;;;;17.23;10.87;;;5.30;26.00;;;;;;5040795;28;20492;-65
2024/01/07 05:06:05;;;;;;;17.90;11.60;;;5.30;26.00;;;;;;5043112;28;20490;-65
2024/01/07 05:08:31;;;;;;;16.30;11.80;;;5.30;25.80;;;;;;5045221;28;20465;-65
2024/01/07 05:10:58;;;;;;;15.27;10.40;;;5.30;25.80;;;;;;5046981;28;20454;-65
2024/01/07 05:13:25;;;;;;;16.13;11.60;;;5.30;26.00;;;;;;5043418;28;20482;-66
2024/01/07 05:15:54;;;;;;;18.10;12.30;;;5.30;25.70;;;;;;5043954;28;21092;-65
2024/01/07 05:18:21;;;;;;;17.13;11.87;;;5.30;25.90;;;;;;5046072;28;21121;-65
2024/01/07 05:20:48;;;;;;;18.40;11.40;;;5.30;25.80;;;;;;5045573;28;20465;-66
2024/01/07 05:23:15;;;;;;;17.07;11.43;;;5.20;25.90;;;;;;5045832;28;20493;-65
2024/01/07 05:25:43;;;;;;;19.30;11.30;;;5.20;26.10;;;;;;5048070;28;20540;-65
2024/01/07 05:28:10;;;;;;;18.83;11.97;;;5.20;26.20;;;;;;5048090;28;20454;-66
2024/01/07 05:30:36;;;;;;;17.70;12.37;;;5.20;26.00;;;;;;5049642;28;20470;-66
2024/01/07 05:33:05;;;;;;;18.27;12.40;;;5.20;26.10;;;;;;5046776;28;20477;-65
2024/01/07 05:35:32;;;;;;;17.50;12.13;;;5.20;26.30;;;;;;5049742;28;20461;-66
2024/01/07 05:37:58;;;;;;;17.10;12.00;;;5.20;26.10;;;;;;5046093;28;20484;-66
2024/01/07 05:40:25;;;;;;;17.60;12.50;;;5.20;26.10;;;;;;5049535;28;20450;-66
2024/01/07 05:42:52;;;;;;;17.30;12.10;;;5.20;26.30;;;;;;5048449;28;20474;-66
2024/01/07 05:45:20;;;;;;;19.40;13.13;;;5.20;26.00;;;;;;5048850;28;20466;-66
2024/01/07 05:47:46;;;;;;;16.40;12.03;;;5.20;26.10;;;;;;5048622;28;20465;-66
2024/01/07 05:50:15;;;;;;;20.43;13.63;;;5.20;26.20;;;;;;5049629;28;20453;-65
2024/01/07 05:52:44;;;;;;;18.93;13.00;;;5.20;26.30;;;;;;5047107;28;20463;-66
2024/01/07 05:55:11;;;;;;;18.17;12.70;;;5.20;26.20;;;;;;5048512;28;21128;-66
2024/01/07 05:57:37;;;;;;;18.70;12.70;;;5.20;26.20;;;;;;5044107;28;20994;-66
2024/01/07 06:00:05;;;;;;;22.03;12.37;;;5.20;26.00;;;;;;5046443;28;20465;-66
2024/01/07 06:02:32;;;;;;;18.53;12.30;;;5.20;26.30;;;;;;5047356;28;20836;-66
2024/01/07 06:04:58;;;;;;;19.30;12.73;;;5.20;26.20;;;;;;5046760;28;20458;-66
2024/01/07 06:07:26;;;;;;;18.30;12.77;;;5.20;26.20;;;;;;5045365;28;20946;-66
2024/01/07 06:09:53;;;;;;;21.17;13.87;;;5.30;26.30;;;;;;5048075;28;20469;-65
2024/01/07 06:12:20;;;;;;;21.93;13.40;;;5.20;26.20;;;;;;5061593;28;20450;-66
2024/01/07 06:14:46;;;;;;;21.10;13.43;;;5.20;26.30;;;;;;5068616;28;20454;-66
2024/01/07 06:17:13;;;;;;;19.43;14.40;;;5.30;26.30;;;;;;5057368;28;20958;-66
2024/01/07 06:19:40;;;;;;;24.07;14.40;;;5.30;26.20;;;;;;5047816;28;20517;-66
2024/01/07 06:22:07;;;;;;;19.23;14.37;;;5.20;26.20;;;;;;5047754;28;20478;-66
2024/01/07 06:24:35;;;;;;;25.90;15.93;;;5.20;26.30;;;;;;5047962;28;20553;-65
2024/01/07 06:27:03;;;;;;;22.83;14.00;;;5.20;26.60;;;;;;5048449;28;20454;-65
2024/01/07 06:29:30;;;;;;;18.27;12.83;;;5.20;26.40;;;;;;5043154;28;20472;-66
2024/01/07 06:31:57;;;;;;;23.37;16.30;;;5.20;26.50;;;;;;5047452;28;20493;-66
2024/01/07 06:34:23;;;;;;;22.07;15.50;;;5.20;26.70;;;;;;5048545;28;20485;-65
2024/01/07 06:36:50;;;;;;;25.23;13.70;;;5.20;26.60;;;;;;5046440;28;20462;-66
2024/01/07 06:39:17;;;;;;;22.77;15.30;;;5.20;26.80;;;;;;5047192;28;20485;-65
2024/01/07 06:41:45;;;;;;;22.27;14.33;;;5.20;26.70;;;;;;5047453;28;20504;-66
2024/01/07 06:44:12;;;;;;;19.67;14.73;;;5.30;26.80;;;;;;5047476;28;20477;-66
2024/01/07 06:46:38;;;;;;;21.40;14.73;;;5.20;26.70;;;;;;5049543;28;20454;-65
2024/01/07 06:49:05;;;;;;;21.37;15.47;;;5.30;26.80;;;;;;5046163;28;20965;-65
2024/01/07 06:51:32;;;;;;;22.17;15.80;;;5.30;27.00;;;;;;5044221;28;20784;-65
2024/01/07 06:53:58;;;;;;;24.03;15.63;;;5.30;26.80;;;;;;5042196;28;20482;-65
2024/01/07 06:56:25;;;;;;;23.80;15.40;;;5.30;27.60;;;;;;5049642;28;20482;-65
2024/01/07 06:58:53;;;;;;;22.50;15.43;;;5.30;27.00;;;;;;5045104;28;20478;-65
2024/01/07 07:01:23;;;;;;;22.20;15.27;;;5.30;26.90;;;;;;5042790;28;21018;-65
2024/01/07 07:03:49;;;;;;;20.73;15.03;;;5.30;27.00;;;;;;5047522;28;21013;-65
2024/01/07 07:06:16;;;;;;;20.90;14.33;;;5.20;27.10;;;;;;5048760;28;20454;-65
2024/01/07 07:08:43;;;;;;;20.97;15.00;;;5.20;27.10;;;;;;5049289;28;20461;-65
2024/01/07 07:11:09;;;;;;;22.40;14.50;;;5.30;27.10;;;;;;5048637;28;20477;-65
2024/01/07 07:13:37;;;;;;;22.00;15.00;;;5.30;27.10;;;;;;5049239;28;20470;-65
2024/01/07 07:16:07;;;;;;;23.93;15.87;;;5.30;27.10;;;;;;5046630;28;20556;-65
2024/01/07 07:18:33;;;;;;;21.90;15.40;;;5.30;27.10;;;;;;5047744;28;20478;-65
2024/01/07 07:21:00;;;;;;;19.27;14.20;;;5.30;26.90;;;;;;5046834;28;20508;-65
2024/01/07 07:23:27;;;;;;;22.60;15.50;;;5.20;27.00;;;;;;5048965;28;20488;-65
2024/01/07 07:25:54;;;;;;;22.43;14.77;;;5.20;27.00;;;;;;5044619;28;20454;-64
2024/01/07 07:28:20;;;;;;;21.43;13.17;;;5.20;26.90;;;;;;5046915;28;20451;-64
2024/01/07 07:30:47;;;;;;;18.90;13.33;;;5.20;26.60;;;;;;5041187;28;21231;-66
2024/01/07 07:33:15;;;;;;;17.03;12.37;;;5.20;26.50;;;;;;5046196;28;20482;-66
2024/01/07 07:35:42;;;;;;;18.70;12.87;;;5.20;26.50;;;;;;5047280;28;20462;-66
2024/01/07 07:38:09;;;;;;;18.07;12.97;;;5.20;26.50;;;;;;5047670;28;20489;-66
2024/01/07 07:40:35;;;;;;;16.13;12.20;;;5.20;26.50;;;;;;5042403;28;20465;-66
2024/01/07 07:43:02;;;;;;;16.60;12.40;;;5.10;26.60;;;;;;5047458;28;20485;-66
2024/01/07 07:45:29;;;;;;;15.23;11.73;;;5.10;26.50;;;;;;5041424;28;20458;-67
2024/01/07 07:47:55;;;;;;;19.57;11.77;;;5.10;26.80;;;;;;5045851;28;20457;-66
2024/01/07 07:50:23;;;;;;;16.73;11.53;;;5.10;26.70;;;;;;5047353;28;20973;-66
2024/01/07 07:52:50;;;;;;;17.00;12.90;;;5.10;26.50;;;;;;5047871;28;20481;-67
2024/01/07 07:55:17;;;;;;;17.43;12.47;;;5.00;26.40;;;;;;5048024;28;20462;-67
2024/01/07 07:57:46;;;;;;;18.53;11.33;;;5.00;26.30;;;;;;5048628;28;20866;-66
2024/01/07 08:00:13;;;;;;;17.37;12.47;;;5.00;26.30;;;;;;5046510;28;20473;-67
2024/01/07 08:02:40;;;;;;;17.17;12.23;;;5.00;26.30;;;;;;5045519;28;20470;-67
2024/01/07 08:05:07;;;;;;;16.00;11.53;;;5.00;26.20;;;;;;5045459;28;20969;-66
2024/01/07 08:07:37;;;;;;;14.57;11.53;;;5.00;26.10;;;;;;5046369;28;20453;-67
2024/01/07 08:10:05;;;;;;;15.00;10.40;;;5.00;26.10;;;;;;5045842;28;20462;-67
2024/01/07 08:12:32;;;;;;;17.63;11.73;;;5.00;26.10;;;;;;5046533;28;20508;-67
2024/01/07 08:14:59;;;;;;;14.60;10.57;;;5.00;26.00;;;;;;5043944;28;20465;-67
2024/01/07 08:17:25;;;;;;;15.60;11.00;;;5.00;26.20;;;;;;5046330;28;20465;-66
2024/01/07 08:19:52;;;;;;;14.73;10.77;;;5.00;25.90;;;;;;5045732;28;20876;-67
2024/01/07 08:22:19;;;;;;;14.80;9.97;;;5.00;25.70;;;;;;5046112;28;20532;-67
2024/01/07 08:24:47;;;;;;;14.17;10.87;;;5.00;25.70;;;;;;5046967;28;20513;-66
2024/01/07 08:27:14;;;;;;;13.90;10.50;;;5.00;25.90;;;;;;5046381;28;20462;-66
2024/01/07 08:29:43;;;;;;;14.30;10.90;;;5.00;25.90;;;;;;5045123;28;20455;-67
2024/01/07 08:32:12;;;;;;;14.57;10.17;;;5.00;25.90;;;;;;5042287;28;20478;-67
2024/01/07 08:34:39;;;;;;;15.53;10.63;;;5.00;26.00;;;;;;5042834;28;20490;-66
2024/01/07 08:37:05;;;;;;;16.57;11.60;;;5.00;26.20;;;;;;5046301;28;21008;-67
2024/01/07 08:39:32;;;;;;;15.93;11.30;;;5.10;26.00;;;;;;5044088;28;20473;-66
2024/01/07 08:42:00;;;;;;;16.53;11.40;;;5.10;25.90;;;;;;5038529;28;20848;-67
2024/01/07 08:44:27;;;;;;;17.27;10.97;;;5.10;26.10;;;;;;5044863;28;20489;-67
2024/01/07 08:46:53;;;;;;;15.33;10.60;;;5.10;25.90;;;;;;5046314;28;20509;-66
2024/01/07 08:49:20;;;;;;;15.40;10.13;;;5.10;25.20;;;;;;5042193;28;20471;-68
2024/01/07 08:51:47;;;;;;;13.63;9.13;;;5.10;24.30;;;;;;5046077;28;20462;-67
2024/01/07 08:54:13;;;;;;;16.00;9.87;;;5.10;24.20;;;;;;5043126;28;20478;-66
2024/01/07 08:56:40;;;;;;;14.27;9.20;;;5.10;24.00;;;;;;5045438;28;20959;-67
2024/01/07 08:59:08;;;;;;;13.50;8.80;;;5.00;24.10;;;;;;5042521;28;20485;-67
2024/01/07 09:01:35;;;;;;;14.30;8.50;;;5.00;24.00;;;;;;5046490;28;20470;-66
2024/01/07 09:04:01;;;;;;;12.47;8.80;;;5.00;23.70;;;;;;5047991;28;20478;-66
2024/01/07 09:06:28;;;;;;;14.17;9.60;;;5.00;24.00;;;;;;5049744;28;20469;-67
2024/01/07 09:08:55;;;;;;;13.77;8.33;;;5.00;23.90;;;;;;5049639;28;20461;-71
2024/01/07 09:11:23;;;;;;;13.00;8.77;;;5.00;24.00;;;;;;5050257;28;20465;-68
2024/01/07 09:13:50;;;;;;;14.20;9.03;;;5.00;23.80;;;;;;5069314;28;20500;-70
2024/01/07 09:16:18;;;;;;;13.80;9.40;;;4.90;23.70;;;;;;5071525;28;20446;-70
2024/01/07 09:18:45;;;;;;;15.30;9.03;;;4.90;23.70;;;;;;5045759;28;20493;-69
2024/01/07 09:21:12;;;;;;;16.03;9.70;;;4.90;23.60;;;;;;5048795;28;20458;-71
2024/01/07 09:23:39;;;;;;;15.60;10.90;;;4.80;23.80;;;;;;5049655;28;20987;-69
2024/01/07 09:26:06;;;;;;;14.97;9.10;;;4.80;23.60;;;;;;5048834;28;20462;-68
2024/01/07 09:28:32;;;;;;;15.17;9.87;;;4.80;23.90;;;;;;5048221;28;20465;-70
2024/01/07 09:30:59;;;;;;;12.83;8.27;;;4.80;23.90;;;;;;5049209;28;20485;-69
2024/01/07 09:33:27;;;;;;;15.07;9.10;;;4.80;24.10;;;;;;5046722;28;20473;-70
2024/01/07 09:35:54;;;;;;;13.37;8.70;;;4.80;23.60;;;;;;5048144;28;20458;-70
2024/01/07 09:38:21;;;;;;;14.40;9.10;;;4.80;24.00;;;;;;5047061;28;20547;-70
2024/01/07 09:40:48;;;;;;;10.00;7.27;;;4.80;23.60;;;;;;5042751;28;20857;-70
2024/01/07 09:43:15;;;;;;;12.30;7.80;;;4.80;23.10;;;;;;5048356;28;20488;-70
2024/01/07 09:45:46;;;;;;;14.57;9.10;;;4.80;22.80;;;;;;5049032;28;20966;-71
2024/01/07 09:48:13;;;;;;;14.23;9.40;;;4.80;22.80;;;;;;5044445;28;20486;-70
2024/01/07 09:50:41;;;;;;;15.13;9.07;;;4.70;23.50;;;;;;5045528;28;20465;-70
2024/01/07 09:53:12;;;;;;;13.90;9.30;;;4.70;23.90;;;;;;5048283;28;20482;-71
2024/01/07 09:55:48;;;;;;;15.30;9.10;;;4.70;23.90;;;;;;5047651;28;20580;-69
2024/01/07 09:58:15;;;;;;;14.40;9.37;;;4.70;23.90;;;;;;5046422;28;20463;-69
2024/01/07 10:00:43;;;;;;;12.60;8.40;;;4.70;23.50;;;;;;5046584;28;20478;-70
2024/01/07 10:03:10;;;;;;;13.20;8.07;;;4.70;23.60;;;;;;5049047;28;20481;-70
2024/01/07 10:05:36;;;;;;;13.67;8.67;;;4.70;23.00;;;;;;5049231;28;20460;-71
2024/01/07 10:08:06;;;;;;;15.63;8.93;;;4.70;23.40;;;;;;5046361;28;20477;-71
2024/01/07 10:10:35;;;;;;;11.60;7.77;;;4.70;23.60;;;;;;5046700;28;20465;-70
2024/01/07 10:13:02;;;;;;;12.63;7.30;;;4.80;23.70;;;;;;5048321;28;20482;-71
2024/01/07 10:15:29;;;;;;;12.00;7.40;;;4.80;22.50;;;;;;5051290;28;20454;-70
2024/01/07 10:17:56;;;;;;;12.87;6.90;;;4.70;22.30;;;;;;5051054;28;20461;-70
2024/01/07 10:20:23;;;;;;;10.67;7.10;;;4.80;22.00;;;;;;5048903;28;20513;-71
2024/01/07 10:22:51;;;;;;;11.97;6.70;;;4.70;22.20;;;;;;5042051;28;21041;-70
2024/01/07 10:25:20;;;;;;;13.97;8.90;;;4.70;22.30;;;;;;5048933;28;20512;-70
2024/01/07 10:27:46;;;;;;;11.60;7.30;;;4.70;21.60;;;;;;5047348;28;21013;-69
2024/01/07 10:30:16;;;;;;;12.33;6.90;;;4.70;21.30;;;;;;5048226;28;20469;-70
2024/01/07 10:32:43;;;;;;;11.67;7.40;;;4.60;21.50;;;;;;5048220;28;20456;-70
2024/01/07 10:35:15;;;;;;;10.40;6.67;;;4.60;21.30;;;;;;5047516;28;20481;-69
2024/01/07 10:37:42;;;;;;;11.33;7.00;;;4.60;21.10;;;;;;5047969;28;20461;-70
2024/01/07 10:40:12;;;;;;;12.50;7.30;;;4.60;20.50;;;;;;5049072;28;20866;-69
2024/01/07 10:42:43;;;;;;;11.93;7.10;;;4.50;20.80;;;;;;5049064;28;20450;-69
2024/01/07 10:45:11;;;;;;;10.97;6.37;;;4.50;20.80;;;;;;5046716;28;20469;-70
2024/01/07 10:47:41;;;;;;;12.20;7.23;;;4.50;20.40;;;;;;5049125;28;20490;-69
2024/01/07 10:50:12;;;;;;;11.77;7.00;;;4.50;20.60;;;;;;5041044;28;20485;-68
2024/01/07 10:52:41;;;;;;;13.67;8.10;;;4.50;21.30;;;;;;5046659;28;20454;-69
2024/01/07 10:55:11;;;;;;;12.60;7.60;;;4.50;21.40;;;;;;5048703;28;20461;-69
2024/01/07 10:57:45;;;;;;;10.77;7.13;;;4.60;21.30;;;;;;5046426;28;20458;-68
2024/01/07 11:00:18;;;;;;;11.50;7.63;;;4.60;21.20;;;;;;5044278;28;20482;-68
2024/01/07 11:02:57;;;;;;;12.37;7.07;;;4.60;21.10;;;;;;5043741;28;20481;-68
2024/01/07 11:05:29;;;;;;;12.57;7.40;;;4.60;21.40;;;;;;5041954;28;20806;-68
2024/01/07 11:08:04;;;;;;;10.83;7.33;;;4.60;21.20;;;;;;5050405;23;20495;-66
2024/01/07 11:10:39;;;;;;;11.70;7.70;;;4.60;21.10;;;;;;5025321;28;20450;-66
2024/01/07 11:13:08;;;;;;;12.87;7.43;;;4.60;21.60;;;;;;5018755;28;20904;-66
2024/01/07 11:15:53;;;;;;;12.73;7.80;;;4.70;21.20;;;;;;5003293;28;20560;-66
2024/01/07 11:18:20;;;;;;;13.40;7.20;;;4.70;21.10;;;;;;5003134;28;20640;-66
2024/01/07 11:20:48;;;;;;;12.77;7.53;;;4.70;21.00;;;;;;5004562;28;20490;-65
2024/01/07 11:23:28;;;;;;;11.80;7.17;;;4.60;21.00;;;;;;5006965;28;20480;-65
2024/01/07 11:25:57;;;;;;;13.93;7.77;;;4.60;21.10;;;;;;5001379;28;20498;-66
2024/01/07 11:28:50;;;;;;;12.87;7.30;;;4.60;21.00;;;;;;5002754;28;20905;-66
2024/01/07 11:31:19;;;;;;;13.57;8.60;;;4.60;21.20;;;;;;5005933;28;20480;-66
2024/01/07 11:33:47;;;;;;;13.93;8.93;;;4.70;21.40;;;;;;5002733;28;20507;-65
2024/01/07 11:36:14;;;;;;;12.90;8.60;;;4.70;21.30;;;;;;5005636;28;20470;-66
2024/01/07 11:38:45;;;;;;;16.73;8.60;;;4.70;21.60;;;;;;4996009;28;20463;-67
2024/01/07 11:41:13;;;;;;;12.80;7.60;;;4.70;21.30;;;;;;5011155;22;20489;-66
2024/01/07 11:43:55;;;;;;;14.63;8.70;;;4.70;21.30;;;;;;5029528;28;20612;-67
2024/01/07 11:46:22;;;;;;;14.33;8.80;;;4.70;20.80;;;;;;5045170;28;21047;-67
2024/01/07 11:48:49;;;;;;;14.97;8.73;;;4.70;20.30;;;;;;5047377;28;20465;-67
2024/01/07 11:51:17;;;;;;;12.67;8.37;;;4.70;20.00;;;;;;5046546;28;20493;-67
2024/01/07 11:53:46;;;;;;;13.20;8.53;;;4.70;20.00;;;;;;5062068;23;20492;-67
2024/01/07 11:56:13;;;;;;;13.47;8.60;;;4.70;20.30;;;;;;5082866;28;20467;-66
2024/01/07 11:58:41;;;;;;;14.00;8.97;;;4.70;20.80;;;;;;5089445;28;20456;-67
2024/01/07 12:01:09;;;;;;;12.53;7.73;;;4.70;21.00;;;;;;5085209;28;20831;-67
2024/01/07 12:03:36;;;;;;;13.20;8.23;;;4.70;21.00;;;;;;5086892;28;20492;-67
2024/01/07 12:06:03;;;;;;;13.73;8.67;;;4.70;20.60;;;;;;5088199;28;20466;-67
2024/01/07 12:08:31;;;;;;;13.83;8.83;;;4.80;20.40;;;;;;5056620;22;20522;-68
2024/01/07 12:10:58;;;;;;;14.27;9.23;;;4.70;20.50;;;;;;5022728;28;20463;-68
2024/01/07 12:13:25;;;;;;;16.10;9.20;;;4.70;20.50;;;;;;5038709;28;20558;-68
2024/01/07 12:15:52;;;;;;;14.70;9.43;;;4.60;20.70;;;;;;5054500;28;20457;-69
2024/01/07 12:18:21;;;;;;;14.33;8.30;;;4.60;20.50;;;;;;5035423;28;20459;-69
2024/01/07 12:20:56;;;;;;;14.87;9.00;;;4.60;20.50;;;;;;5020736;28;20492;-69
2024/01/07 12:23:23;;;;;;;13.57;8.40;;;4.60;20.50;;;;;;5026066;28;20514;-69
2024/01/07 12:25:50;;;;;;;15.57;9.53;;;4.60;20.60;;;;;;5023188;28;21009;-68
2024/01/07 12:28:18;;;;;;;14.33;9.10;;;4.60;20.60;;;;;;5011849;28;20479;-68
2024/01/07 12:30:44;;;;;;;12.67;8.30;;;4.60;20.80;;;;;;5019756;28;20473;-67
2024/01/07 12:33:11;;;;;;;15.00;10.23;;;4.60;20.60;;;;;;5013641;28;21181;-68
2024/01/07 12:35:39;;;;;;;14.60;9.40;;;4.50;20.70;;;;;;5026481;28;20493;-67
2024/01/07 12:38:06;;;;;;;16.50;9.73;;;4.50;21.30;;;;;;5026908;28;20831;-68
2024/01/07 12:40:34;;;;;;;12.33;8.33;;;4.50;20.70;;;;;;5041822;22;20497;-68
2024/01/07 12:43:02;;;;;;;14.40;8.50;;;4.50;20.80;;;;;;5042841;28;20919;-68